地図

経路データ

SID SEASON NUMBER BASIN SUBBASIN NAME ISO_TIME NATURE LAT LON WMO_WIND WMO_PRES WMO_AGENCY TRACK_TYPE DIST2LAND LANDFALL IFLAG USA_AGENCY USA_ATCF_ID USA_LAT USA_LON USA_RECORD USA_STATUS USA_WIND USA_PRES USA_SSHS USA_R34_NE USA_R34_SE USA_R34_SW USA_R34_NW USA_R50_NE USA_R50_SE USA_R50_SW USA_R50_NW USA_R64_NE USA_R64_SE USA_R64_SW USA_R64_NW USA_POCI USA_ROCI USA_RMW USA_EYE TOKYO_LAT TOKYO_LON TOKYO_GRADE TOKYO_WIND TOKYO_PRES TOKYO_R50_DIR TOKYO_R50_LONG TOKYO_R50_SHORT TOKYO_R30_DIR TOKYO_R30_LONG TOKYO_R30_SHORT TOKYO_LAND CMA_LAT CMA_LON CMA_CAT CMA_WIND CMA_PRES HKO_LAT HKO_LON HKO_CAT HKO_WIND HKO_PRES NEWDELHI_LAT NEWDELHI_LON NEWDELHI_GRADE NEWDELHI_WIND NEWDELHI_PRES NEWDELHI_CI NEWDELHI_DP NEWDELHI_POCI REUNION_LAT REUNION_LON REUNION_TYPE REUNION_WIND REUNION_PRES REUNION_TNUM REUNION_CI REUNION_RMW REUNION_R34_NE REUNION_R34_SE REUNION_R34_SW REUNION_R34_NW REUNION_R50_NE REUNION_R50_SE REUNION_R50_SW REUNION_R50_NW REUNION_R64_NE REUNION_R64_SE REUNION_R64_SW REUNION_R64_NW BOM_LAT BOM_LON BOM_TYPE BOM_WIND BOM_PRES BOM_TNUM BOM_CI BOM_RMW BOM_R34_NE BOM_R34_SE BOM_R34_SW BOM_R34_NW BOM_R50_NE BOM_R50_SE BOM_R50_SW BOM_R50_NW BOM_R64_NE BOM_R64_SE BOM_R64_SW BOM_R64_NW BOM_ROCI BOM_POCI BOM_EYE BOM_POS_METHOD BOM_PRES_METHOD NADI_LAT NADI_LON NADI_CAT NADI_WIND NADI_PRES WELLINGTON_LAT WELLINGTON_LON WELLINGTON_WIND WELLINGTON_PRES DS824_LAT DS824_LON DS824_STAGE DS824_WIND DS824_PRES TD9636_LAT TD9636_LON TD9636_STAGE TD9636_WIND TD9636_PRES TD9635_LAT TD9635_LON TD9635_WIND TD9635_PRES TD9635_ROCI NEUMANN_LAT NEUMANN_LON NEUMANN_CLASS NEUMANN_WIND NEUMANN_PRES MLC_LAT MLC_LON MLC_CLASS MLC_WIND MLC_PRES USA_GUST BOM_GUST BOM_GUST_PER REUNION_GUST REUNION_GUST_PER USA_SEAHGT USA_SEARAD_NE USA_SEARAD_SE USA_SEARAD_SW USA_SEARAD_NW STORM_SPEED STORM_DIR
1983192S05089 1984 32 SI MM NOT_NAMED 1983-07-11 06:00:00 TS -4.80000 88.7000 main 1145 1145 O___________O_ jtwc_sh SH011984 -4.80000 88.7000 25 -1 -4.80000 88.7000 TC 25 8 233
1983192S05089 1984 32 SI MM NOT_NAMED 1983-07-11 09:00:00 TS -5.05002 88.3625 main 1192 1192 P___________P_ SH011984 -5.05002 88.3625 27 -1 -5.05002 88.3625 TC 27 9 234
1983192S05089 1984 32 SI MM NOT_NAMED 1983-07-11 12:00:00 TS -5.30000 88.0000 main 1239 1239 O___________O_ jtwc_sh SH011984 -5.30000 88.0000 30 -1 -5.30000 88.0000 TC 30 9 237
1983192S05089 1984 32 SI MM NOT_NAMED 1983-07-11 15:00:00 TS -5.55000 87.6000 main 1286 1294 P___________P_ SH011984 -5.55000 87.6000 30 -1 -5.55000 87.6000 TC 30 9 238
1983192S05089 1984 32 SI MM NOT_NAMED 1983-07-11 18:00:00 TS -5.80000 87.2000 main 1341 1341 O___________O_ jtwc_sh SH011984 -5.80000 87.2000 30 -1 -5.80000 87.2000 TC 30 9 236
1983192S05089 1984 32 SI MM NOT_NAMED 1983-07-11 21:00:00 TS -6.05745 86.8500 main 1396 1396 P___________P_ SH011984 -6.05745 86.8500 30 -1 -6.05745 86.8500 TC 30 9 234
1983192S05089 1984 32 SI MM NOT_NAMED 1983-07-12 00:00:00 TS -6.30000 86.5000 main 1436 1436 O___________O_ jtwc_sh SH011984 -6.30000 86.5000 30 -1 -6.30000 86.5000 TC 30 9 239
1983192S05089 1984 32 SI MM NOT_NAMED 1983-07-12 03:00:00 TS -6.49249 86.1074 main 1483 1483 P___________P_ SH011984 -6.49249 86.1074 30 -1 -6.49249 86.1074 TC 30 9 243
1983192S05089 1984 32 SI MM NOT_NAMED 1983-07-12 06:00:00 TS -6.70000 85.7000 main 1521 1517 O___________O_ jtwc_sh SH011984 -6.70000 85.7000 30 -1 -6.70000 85.7000 TC 30 10 238
1983192S05089 1984 32 SI MM NOT_NAMED 1983-07-12 09:00:00 TS -6.99249 85.2925 main 1536 1533 P___________P_ SH011984 -6.99249 85.2925 32 -1 -6.99249 85.2925 TC 32 10 233
1983192S05089 1984 32 SI MM NOT_NAMED 1983-07-12 12:00:00 TS -7.30000 84.9000 main 1554 1550 O___________O_ jtwc_sh SH011984 -7.30000 84.9000 35 0 -7.30000 84.9000 TC 35 10 233
1983192S05089 1984 32 SI MM NOT_NAMED 1983-07-12 15:00:00 TS -7.57248 84.5275 main 1573 1570 P___________P_ SH011984 -7.57248 84.5275 35 0 -7.57248 84.5275 TC 35 9 234
1983192S05089 1984 32 SI MM NOT_NAMED 1983-07-12 18:00:00 TS -7.80000 84.2000 main 1586 1583 O___________O_ jtwc_sh SH011984 -7.80000 84.2000 35 0 -7.80000 84.2000 TC 35 7 236
1983192S05089 1984 32 SI MM NOT_NAMED 1983-07-12 21:00:00 TS -7.97245 83.9349 main 1600 1597 P___________P_ SH011984 -7.97245 83.9349 35 0 -7.97245 83.9349 TC 35 6 239
1983192S05089 1984 32 SI MM NOT_NAMED 1983-07-13 00:00:00 TS -8.10000 83.7000 main 1606 1603 O___________O_ jtwc_sh SH011984 -8.10000 83.7000 35 0 -8.10000 83.7000 TC 35 5 244
1983192S05089 1984 32 SI MM NOT_NAMED 1983-07-13 03:00:00 TS -8.20749 83.4500 main 1610 1608 P___________P_ SH011984 -8.20749 83.4500 35 0 -8.20749 83.4500 TC 35 5 248
1983192S05089 1984 32 SI MM NOT_NAMED 1983-07-13 06:00:00 TS -8.30000 83.2000 main 1617 1615 O___________O_ jtwc_sh SH011984 -8.30000 83.2000 35 0 -8.30000 83.2000 TC 35 5 249
1983192S05089 1984 32 SI MM NOT_NAMED 1983-07-13 09:00:00 TS -8.39998 82.9500 main 1622 1620 P___________P_ SH011984 -8.39998 82.9500 35 0 -8.39998 82.9500 TC 35 5 248
1983192S05089 1984 32 SI MM NOT_NAMED 1983-07-13 12:00:00 TS -8.50000 82.7000 main 1630 1628 O___________O_ jtwc_sh SH011984 -8.50000 82.7000 35 0 -8.50000 82.7000 TC 35 5 247
1983192S05089 1984 32 SI MM NOT_NAMED 1983-07-13 15:00:00 TS -8.60747 82.4575 main 1638 1637 P___________P_ SH011984 -8.60747 82.4575 35 0 -8.60747 82.4575 TC 35 5 248
1983192S05089 1984 32 SI MM NOT_NAMED 1983-07-13 18:00:00 TS -8.70000 82.2000 main 1645 1642 O___________O_ jtwc_sh SH011984 -8.70000 82.2000 35 0 -8.70000 82.2000 TC 35 6 255
1983192S05089 1984 32 SI MM NOT_NAMED 1983-07-13 21:00:00 TS -8.74997 81.9149 main 1642 1642 P___________P_ SH011984 -8.74997 81.9149 35 0 -8.74997 81.9149 TC 35 6 260
1983192S05089 1984 32 SI MM NOT_NAMED 1983-07-14 00:00:00 TS -8.80000 81.6000 main 1650 1649 O___________O_ jtwc_sh SH011984 -8.80000 81.6000 35 0 -8.80000 81.6000 TC 35 7 260
1983192S05089 1984 32 SI MM NOT_NAMED 1983-07-14 03:00:00 TS -8.86251 81.2499 main 1659 1658 P___________P_ SH011984 -8.86251 81.2499 32 -1 -8.86251 81.2499 TC 32 7 254
1983192S05089 1984 32 SI MM NOT_NAMED 1983-07-14 06:00:00 TS -9.00000 80.9000 main 1669 1669 O___________O_ jtwc_sh SH011984 -9.00000 80.9000 30 -1 -9.00000 80.9000 TC 30 8 239
1983192S05089 1984 32 SI MM NOT_NAMED 1983-07-14 09:00:00 TS -9.25496 80.5925 main 1703 1703 P___________P_ SH011984 -9.25496 80.5925 30 -1 -9.25496 80.5925 TC 30 8 225
1983192S05089 1984 32 SI MM NOT_NAMED 1983-07-14 12:00:00 TS -9.60000 80.3000 main 1737 1737 O___________O_ jtwc_sh SH011984 -9.60000 80.3000 30 -1 -9.60000 80.3000 TC 30 10 222
1983192S05089 1984 32 SI MM NOT_NAMED 1983-07-14 15:00:00 TS -9.98506 79.9327 main 1783 1783 P___________P_ SH011984 -9.98506 79.9327 30 -1 -9.98506 79.9327 TC 30 10 216
1983192S05089 1984 32 SI MM NOT_NAMED 1983-07-14 18:00:00 TS -10.4000 79.7000 main 1829 1829 O___________O_ jtwc_sh SH011984 -10.4000 79.7000 30 -1 -10.4000 79.7000 TC 30 8 195
1983192S05089 1984 32 SI MM NOT_NAMED 1983-07-14 21:00:00 TS -10.7923 79.7151 main 1873 1873 P___________P_ SH011984 -10.7923 79.7151 30 -1 -10.7923 79.7151 TC 30 9 160
1983192S05089 1984 32 SI MM NOT_NAMED 1983-07-15 00:00:00 TS -11.2000 80.0000 main 1917 1917 O___________O_ jtwc_sh SH011984 -11.2000 80.0000 30 -1 -11.2000 80.0000 TC 30 12 137
1983192S05089 1984 32 SI MM NOT_NAMED 1983-07-15 03:00:00 TS -11.6405 80.5319 main 1960 1960 P___________P_ SH011984 -11.6405 80.5319 27 -1 -11.6405 80.5319 TC 27 15 127
1983192S05089 1984 32 SI MM NOT_NAMED 1983-07-15 06:00:00 TS -12.1000 81.2000 main 2017 O___________O_ jtwc_sh SH011984 -12.1000 81.2000 25 -1 -12.1000 81.2000 TC 25 16 125

IBTrACS Databaseについて

本データベースは、米国NOAAが公開する1842年以降の世界の熱帯低気圧のベストトラックデータアーカイブInternational Best Track Archive for Climate Stewardship (IBTrACS)を、ウェブで閲覧しやすい形式に変換したものです。

最終更新日:2021-10-08